Time;durP1;ratioP1;P1;durP2;ratioP2;P2;SDS_P1;SDS_P2;PMS_P1;PMS_P2;Temp;Humidity;BMP_temperature;BMP_pressure;BME280_temperature;BME280_humidity;BME280_pressure;Samples;Min_cycle;Max_cycle;Signal;HPM_P1;HPM_P2
2021/12/02 00:01:43;;;;;;;27.23;16.98;;;;;;;5.07;100.00;99590.41;5052116;28;20049;-77
2021/12/02 00:04:11;;;;;;;27.17;16.95;;;;;;;5.08;100.00;99586.59;5052500;28;20049;-77
2021/12/02 00:06:39;;;;;;;30.67;17.38;;;;;;;5.08;100.00;99585.81;5051038;28;20045;-77
2021/12/02 00:09:07;;;;;;;32.45;17.60;;;;;;;5.13;100.00;99587.72;5051693;28;20056;-77
2021/12/02 00:11:35;;;;;;;27.63;16.73;;;;;;;5.19;100.00;99587.44;5052393;28;20404;-76
2021/12/02 00:14:09;;;;;;;28.67;17.17;;;;;;;5.23;100.00;99576.88;5052007;28;20480;-76
2021/12/02 00:17:02;;;;;;;28.63;17.10;;;;;;;5.16;100.00;99570.88;5052081;28;20045;-76
2021/12/02 00:22:16;;;;;;;26.63;16.38;;;;;;;5.08;100.00;99573.06;5052234;28;20048;-77
2021/12/02 00:24:51;;;;;;;30.27;17.33;;;;;;;5.04;100.00;99563.81;5052094;28;20045;-76
2021/12/02 00:27:19;;;;;;;30.73;17.95;;;;;;;5.03;100.00;99561.38;5035320;28;20503;-76
2021/12/02 00:29:48;;;;;;;30.08;17.48;;;;;;;5.03;100.00;99562.19;5051546;28;20041;-76
2021/12/02 00:32:17;;;;;;;24.27;15.38;;;;;;;5.07;100.00;99559.75;5033216;28;20053;-76
2021/12/02 00:34:46;;;;;;;29.25;16.13;;;;;;;5.11;100.00;99558.13;5051564;28;20041;-76
2021/12/02 00:37:14;;;;;;;26.35;15.52;;;;;;;5.08;100.00;99570.34;5051613;28;20488;-76
2021/12/02 00:39:42;;;;;;;24.55;15.43;;;;;;;5.09;100.00;99566.53;5051560;28;20063;-77
2021/12/02 00:42:10;;;;;;;25.33;14.93;;;;;;;5.13;100.00;99569.53;5051852;28;20057;-77
2021/12/02 00:44:41;;;;;;;22.17;13.70;;;;;;;5.13;100.00;99563.31;5034326;28;20480;-77
2021/12/02 00:47:09;;;;;;;22.67;13.57;;;;;;;5.16;100.00;99565.47;5051889;28;20699;-77
2021/12/02 00:49:37;;;;;;;21.48;14.13;;;;;;;5.11;100.00;99564.38;5051297;28;20041;-77
2021/12/02 00:52:06;;;;;;;19.08;11.95;;;;;;;5.18;100.00;99560.59;5051847;28;20067;-77
2021/12/02 00:54:40;;;;;;;22.63;13.60;;;;;;;5.25;100.00;99558.44;5051441;28;20041;-77
2021/12/02 00:57:11;;;;;;;22.35;13.77;;;;;;;5.35;100.00;99558.44;5051581;28;20408;-77
2021/12/02 00:59:41;;;;;;;21.98;13.05;;;;;;;5.35;100.00;99563.88;5051336;28;20056;-77
2021/12/02 01:02:10;;;;;;;21.27;13.02;;;;;;;5.48;100.00;99561.72;5051517;28;20045;-77
2021/12/02 01:04:38;;;;;;;21.60;12.05;;;;;;;5.39;100.00;99558.72;5051517;28;20049;-77
2021/12/02 01:07:07;;;;;;;20.77;12.65;;;;;;;5.44;100.00;99550.59;5051395;28;20096;-77
2021/12/02 01:09:35;;;;;;;20.05;12.25;;;;;;;5.46;100.00;99559.25;5051727;28;20052;-77
2021/12/02 01:12:05;;;;;;;21.13;12.32;;;;;;;5.31;100.00;99551.94;5051412;28;20431;-77
2021/12/02 01:14:33;;;;;;;20.33;12.30;;;;;;;5.32;100.00;99545.41;5051292;28;20112;-77
2021/12/02 01:17:01;;;;;;;21.60;11.32;;;;;;;5.23;100.00;99544.34;5034031;28;20052;-77
2021/12/02 01:19:29;;;;;;;20.27;12.52;;;;;;;5.27;100.00;99547.31;5050925;28;20052;-77
2021/12/02 01:21:57;;;;;;;18.73;12.38;;;;;;;5.27;100.00;99533.75;5051391;28;20049;-77
2021/12/02 01:24:27;;;;;;;20.27;12.77;;;;;;;5.27;100.00;99536.47;5037129;28;20045;-77
2021/12/02 01:26:57;;;;;;;22.73;12.63;;;;;;;5.23;100.00;99538.91;5033049;28;20049;-76
2021/12/02 01:29:26;;;;;;;21.35;12.32;;;;;;;5.35;100.00;99538.63;5051096;28;20041;-77
2021/12/02 01:32:04;;;;;;;18.92;11.95;;;;;;;5.29;100.00;99540.53;5051386;28;20044;-77
2021/12/02 01:34:32;;;;;;;21.05;12.57;;;;;;;5.31;100.00;99526.69;5051248;28;20392;-77
2021/12/02 01:37:01;;;;;;;19.67;12.35;;;;;;;5.28;100.00;99533.47;5033548;28;20048;-77
2021/12/02 01:39:30;;;;;;;22.10;12.15;;;;;;;5.23;100.00;99522.63;5052527;28;20488;-77
2021/12/02 01:41:59;;;;;;;17.58;11.63;;;;;;;5.21;100.00;99520.19;5055207;28;20401;-77
2021/12/02 01:44:28;;;;;;;21.55;12.65;;;;;;;5.17;100.00;99519.09;5037226;28;20392;-77
2021/12/02 01:47:00;;;;;;;19.80;11.85;;;;;;;5.19;100.00;99516.13;5055116;28;20044;-77
2021/12/02 01:49:32;;;;;;;18.00;10.90;;;;;;;5.21;100.00;99513.94;5037171;28;20033;-77
2021/12/02 01:52:03;;;;;;;23.92;13.07;;;;;;;5.20;100.00;99504.19;5054778;28;20415;-77
2021/12/02 01:54:31;;;;;;;22.48;11.50;;;;;;;5.21;100.00;99513.94;5054773;28;20049;-77
2021/12/02 01:57:05;;;;;;;20.00;12.48;;;;;;;5.09;100.00;99492.50;5041015;28;20045;-77
2021/12/02 01:59:35;;;;;;;;;;;;;;;5.16;100.00;99505.78;5055252;28;20378;-77
2021/12/02 02:02:06;;;;;;;22.00;11.93;;;;;;;5.15;100.00;99504.16;5053652;28;19921;-77
2021/12/02 02:04:36;;;;;;;20.05;11.27;;;;;;;5.09;100.00;99496.03;5054768;28;20412;-77
2021/12/02 02:07:11;;;;;;;21.15;11.32;;;;;;;5.12;100.00;99497.38;5054395;28;20496;-77
2021/12/02 02:09:40;;;;;;;19.35;11.43;;;;;;;5.16;100.00;99492.22;5036881;28;20389;-77
2021/12/02 02:12:11;;;;;;;20.40;11.57;;;;;;;5.21;100.00;99495.78;5054706;28;20037;-77
2021/12/02 02:14:41;;;;;;;21.13;12.45;;;;;;;5.20;100.00;99486.00;5042879;28;20052;-77
2021/12/02 02:19:43;;;;;;;;;;;;;;;5.17;100.00;99489.25;5054277;28;20041;-77
2021/12/02 02:22:12;;;;;;;18.90;11.38;;;;;;;5.15;100.00;99483.28;5054333;28;19925;-77
2021/12/02 02:24:40;;;;;;;20.30;10.57;;;;;;;5.16;100.00;99484.09;5054231;28;20048;-78
2021/12/02 02:27:08;;;;;;;18.75;11.02;;;;;;;5.15;100.00;99471.63;5054062;28;20041;-77
2021/12/02 02:29:36;;;;;;;21.45;13.05;;;;;;;5.22;100.00;99467.56;5054182;28;20036;-77
2021/12/02 02:32:05;;;;;;;19.20;11.23;;;;;;;5.27;100.00;99465.94;5054228;28;20049;-78
2021/12/02 02:34:33;;;;;;;16.50;9.93;;;;;;;5.24;100.00;99459.16;5053659;28;20044;-77
2021/12/02 02:37:04;;;;;;;18.85;10.43;;;;;;;5.18;100.00;99449.41;5054137;28;20068;-78
2021/12/02 02:39:34;;;;;;;20.40;11.63;;;;;;;5.18;100.00;99444.75;5053624;28;20041;-77
2021/12/02 02:42:05;;;;;;;16.90;11.13;;;;;;;5.15;100.00;99455.34;5054042;28;20075;-78
2021/12/02 02:44:37;;;;;;;18.20;11.13;;;;;;;5.16;100.00;99441.53;5053780;28;20045;-78
2021/12/02 02:47:05;;;;;;;17.98;10.68;;;;;;;5.14;100.00;99448.31;5053987;28;20052;-77
2021/12/02 02:49:32;;;;;;;18.83;11.15;;;;;;;5.21;100.00;99446.13;5052442;28;20057;-77
2021/12/02 02:52:00;;;;;;;21.48;10.80;;;;;;;5.16;100.00;99438.81;5052620;28;20068;-78
2021/12/02 02:54:28;;;;;;;17.60;10.82;;;;;;;5.13;100.00;99441.25;5053524;28;20538;-77
2021/12/02 02:57:02;;;;;;;17.98;10.63;;;;;;;5.06;100.00;99438.81;5039856;28;20055;-77
2021/12/02 03:02:13;;;;;;;18.67;10.57;;;;;;;5.08;100.00;99428.53;5039743;28;20041;-77
2021/12/02 03:07:53;;;;;;;17.77;10.25;;;;;;;5.13;100.00;99427.69;4972368;28;20464;-77
2021/12/02 03:10:43;;;;;;;18.73;11.25;;;;;;;5.15;100.00;99417.38;5039566;28;20068;-77
2021/12/02 03:13:18;;;;;;;17.08;10.80;;;;;;;5.09;100.00;99422.00;5053471;28;20049;-77
2021/12/02 03:18:37;;;;;;;19.48;10.77;;;;;;;5.06;100.00;99420.66;5036413;28;20056;-77
2021/12/02 03:21:22;;;;;;;15.68;9.63;;;;;;;5.11;100.00;99412.50;5051013;28;20056;-77
2021/12/02 03:23:53;;;;;;;13.80;10.23;;;;;;;5.09;100.00;99422.81;5050265;28;20052;-77
2021/12/02 03:26:21;;;;;;;20.67;11.25;;;;;;;5.09;100.00;99406.53;5050015;28;20040;-77
2021/12/02 03:28:52;;;;;;;16.85;10.23;;;;;;;5.07;100.00;99407.88;5051359;28;20049;-77
2021/12/02 03:31:21;;;;;;;13.82;9.38;;;;;;;5.07;100.00;99408.72;5051502;28;20045;-77
2021/12/02 03:33:49;;;;;;;18.08;9.93;;;;;;;5.08;100.00;99404.91;5044273;28;20392;-77
2021/12/02 03:36:18;;;;;;;14.20;9.82;;;;;;;5.06;100.00;99408.97;5051442;28;20049;-77
2021/12/02 03:38:47;;;;;;;18.90;10.88;;;;;;;5.12;100.00;99399.75;5048246;28;20053;-77
2021/12/02 03:41:15;;;;;;;17.25;10.48;;;;;;;5.14;100.00;99400.31;5051135;28;20041;-77
2021/12/02 03:43:45;;;;;;;14.15;10.02;;;;;;;5.10;100.00;99400.00;5051122;28;20043;-78
2021/12/02 03:46:15;;;;;;;16.80;11.18;;;;;;;5.05;100.00;99397.34;5041387;28;20044;-77
2021/12/02 03:48:44;;;;;;;15.88;9.82;;;;;;;5.10;100.00;99404.63;5051038;28;20041;-77
2021/12/02 03:51:13;;;;;;;14.95;10.55;;;;;;;5.03;100.00;99394.06;5052387;28;20053;-75
2021/12/02 03:53:40;;;;;;;15.68;10.38;;;;;;;5.08;100.00;99396.78;5052555;28;20045;-77
2021/12/02 03:56:09;;;;;;;18.38;10.80;;;;;;;5.13;100.00;99406.00;5021288;28;20515;-77
2021/12/02 03:58:40;;;;;;;18.65;10.38;;;;;;;5.12;100.00;99405.19;5052117;28;20041;-78
2021/12/02 04:01:09;;;;;;;15.05;9.98;;;;;;;5.13;100.00;99398.66;5052477;28;20052;-77
2021/12/02 04:03:38;;;;;;;21.60;10.77;;;;;;;5.17;100.00;99399.75;5052084;28;20033;-77
2021/12/02 04:06:07;;;;;;;12.95;9.18;;;;;;;5.18;100.00;99406.00;5052290;28;20056;-77
2021/12/02 04:17:02;;;;;;;18.25;9.90;;;;;;;5.10;100.00;99389.16;5003534;28;20133;-77
2021/12/02 04:19:30;;;;;;;14.90;9.93;;;;;;;5.16;100.00;99375.59;5010162;28;20045;-77
2021/12/02 04:21:59;;;;;;;17.92;10.98;;;;;;;5.16;100.00;99381.03;5021504;28;20057;-77
2021/12/02 04:24:27;;;;;;;16.17;10.98;;;;;;;5.16;100.00;99376.44;5050406;28;20060;-78
2021/12/02 04:26:55;;;;;;;17.17;10.63;;;;;;;5.16;100.00;99386.44;5052255;28;20048;-78
2021/12/02 04:29:24;;;;;;;16.48;10.95;;;;;;;5.14;100.00;99378.63;5051939;28;20508;-77
2021/12/02 04:31:52;;;;;;;20.23;10.95;;;;;;;5.13;100.00;99373.44;5051002;28;20041;-77
2021/12/02 04:34:20;;;;;;;17.20;10.82;;;;;;;5.15;100.00;99376.69;5051874;28;20048;-76
2021/12/02 04:36:48;;;;;;;15.63;10.15;;;;;;;5.17;100.00;99375.34;5052066;28;20071;-76
2021/12/02 04:39:19;;;;;;;17.52;10.77;;;;;;;5.09;100.00;99373.19;5051831;28;20044;-77
2021/12/02 04:41:47;;;;;;;19.35;11.82;;;;;;;5.06;100.00;99371.00;5051861;28;20119;-77
2021/12/02 04:44:18;;;;;;;18.15;11.27;;;;;;;5.16;100.00;99381.03;5033573;28;20059;-77
2021/12/02 04:46:47;;;;;;;17.52;10.73;;;;;;;5.00;100.00;99372.09;5051621;28;20468;-77
2021/12/02 04:49:15;;;;;;;18.25;11.85;;;;;;;5.02;100.00;99376.16;5051848;28;20076;-77
2021/12/02 04:51:43;;;;;;;20.40;11.18;;;;;;;5.08;100.00;99374.28;5051618;28;20480;-77
2021/12/02 04:54:11;;;;;;;15.95;11.00;;;;;;;5.01;100.00;99382.69;5051765;28;20056;-77
2021/12/02 04:56:39;;;;;;;17.38;11.55;;;;;;;5.02;100.00;99387.00;5051553;28;20048;-77
2021/12/02 04:59:07;;;;;;;21.35;13.10;;;;;;;5.00;100.00;99378.34;5033886;28;20037;-78
2021/12/02 05:01:35;;;;;;;19.60;11.93;;;;;;;5.01;100.00;99374.53;5051275;28;20535;-78
2021/12/02 05:04:03;;;;;;;19.80;11.75;;;;;;;5.01;100.00;99382.69;5051597;28;20049;-77
2021/12/02 05:06:31;;;;;;;22.23;12.18;;;;;;;4.97;100.00;99381.59;5033971;28;20052;-77
2021/12/02 05:08:59;;;;;;;19.88;11.20;;;;;;;4.95;100.00;99373.72;5033724;28;20033;-78
2021/12/02 05:11:27;;;;;;;19.15;11.52;;;;;;;4.96;100.00;99377.25;5051346;28;20045;-78
2021/12/02 05:13:55;;;;;;;17.95;11.48;;;;;;;4.97;100.00;99376.16;5051705;28;20045;-78
2021/12/02 05:16:23;;;;;;;17.92;12.90;;;;;;;4.98;100.00;99370.47;5055787;28;20064;-77
2021/12/02 05:18:52;;;;;;;18.38;10.88;;;;;;;4.96;100.00;99378.09;5037185;28;20510;-77
2021/12/02 05:21:20;;;;;;;17.88;11.07;;;;;;;5.05;100.00;99375.63;5054773;28;20052;-77
2021/12/02 05:23:53;;;;;;;19.23;11.32;;;;;;;5.25;100.00;99379.41;5055378;28;20395;-77
2021/12/02 05:26:23;;;;;;;19.00;11.70;;;;;;;5.34;100.00;99371.53;5056156;28;20045;-77
2021/12/02 05:28:52;;;;;;;18.27;10.73;;;;;;;5.28;100.00;99378.84;5058394;28;20420;-77
2021/12/02 05:31:21;;;;;;;18.35;11.20;;;;;;;5.17;100.00;99383.47;5054985;28;20045;-77
2021/12/02 05:33:49;;;;;;;17.63;10.60;;;;;;;5.13;100.00;99379.69;5055171;28;20500;-77
2021/12/02 05:36:17;;;;;;;20.85;11.65;;;;;;;5.09;100.00;99375.91;5054931;28;20052;-77
2021/12/02 05:38:46;;;;;;;17.98;11.30;;;;;;;5.07;100.00;99370.75;5054523;28;20041;-77
2021/12/02 05:41:15;;;;;;;15.65;11.13;;;;;;;5.14;100.00;99362.34;5034261;28;20064;-78
2021/12/02 05:43:43;;;;;;;19.55;10.85;;;;;;;5.03;100.00;99374.28;5054892;28;20052;-77
2021/12/02 05:46:11;;;;;;;17.10;11.38;;;;;;;4.99;100.00;99371.31;5055203;28;20048;-78
2021/12/02 05:48:40;;;;;;;18.00;11.15;;;;;;;5.09;100.00;99368.56;5055117;28;20048;-76
2021/12/02 05:51:08;;;;;;;18.58;11.65;;;;;;;5.14;100.00;99362.34;5054853;28;20400;-76
2021/12/02 05:53:36;;;;;;;17.95;11.60;;;;;;;5.11;100.00;99371.84;5036943;28;20049;-76
2021/12/02 05:56:04;;;;;;;20.83;11.15;;;;;;;5.09;100.00;99355.00;5052712;28;20052;-77
2021/12/02 05:58:32;;;;;;;17.23;10.98;;;;;;;5.09;100.00;99360.44;5054849;28;20056;-80
2021/12/02 06:01:00;;;;;;;17.13;10.82;;;;;;;5.13;100.00;99349.03;5036533;28;20063;-76
2021/12/02 06:03:29;;;;;;;18.15;11.13;;;;;;;5.10;100.00;99348.50;5054293;28;20049;-77
2021/12/02 06:05:58;;;;;;;17.50;11.23;;;;;;;5.01;100.00;99343.91;5054190;28;20044;-77
2021/12/02 06:08:26;;;;;;;17.42;11.50;;;;;;;4.97;100.00;99338.22;5054327;28;20396;-76
2021/12/02 06:10:54;;;;;;;19.73;11.63;;;;;;;4.97;100.00;99338.22;5054773;28;20452;-77
2021/12/02 06:13:24;;;;;;;19.75;11.35;;;;;;;5.03;100.00;99328.97;5037887;28;20452;-76
2021/12/02 06:15:53;;;;;;;17.80;11.52;;;;;;;4.98;100.00;99332.53;5054800;28;20049;-76
2021/12/02 06:18:21;;;;;;;15.60;11.73;;;;;;;4.92;100.00;99327.38;5054092;28;20036;-76
2021/12/02 06:20:53;;;;;;;18.30;12.00;;;;;;;4.89;100.00;99333.34;5054428;28;20059;-76
2021/12/02 06:23:22;;;;;;;21.55;12.55;;;;;;;4.85;100.00;99322.25;5053572;28;20076;-76
2021/12/02 06:25:50;;;;;;;22.58;12.00;;;;;;;4.89;100.00;99325.22;5053632;28;20048;-76
2021/12/02 06:28:19;;;;;;;15.75;11.35;;;;;;;4.89;100.00;99327.94;5053757;28;20056;-76
2021/12/02 06:30:47;;;;;;;19.10;11.80;;;;;;;4.83;100.00;99318.97;5051152;28;20052;-76
2021/12/02 06:33:16;;;;;;;22.23;11.98;;;;;;;4.82;100.00;99329.03;5053767;28;20041;-77
2021/12/02 06:35:44;;;;;;;19.02;12.10;;;;;;;4.77;100.00;99315.47;5053959;28;20491;-76
2021/12/02 06:38:12;;;;;;;18.70;11.98;;;;;;;4.81;100.00;99326.56;5036564;28;20496;-77
2021/12/02 06:40:45;;;;;;;25.95;13.93;;;;;;;4.79;100.00;99326.84;5054023;28;20041;-77
2021/12/02 06:43:16;;;;;;;25.60;14.57;;;;;;;4.84;100.00;99328.75;5054392;28;20049;-75
2021/12/02 06:45:45;;;;;;;29.67;15.50;;;;;;;4.77;100.00;99320.06;5035811;28;20064;-76
2021/12/02 06:48:25;;;;;;;21.77;13.10;;;;;;;4.67;100.00;99315.47;5035574;28;20056;-76
2021/12/02 06:50:53;;;;;;;19.92;13.50;;;;;;;4.67;100.00;99320.88;5053804;28;20423;-76
2021/12/02 06:53:21;;;;;;;24.38;14.27;;;;;;;4.71;100.00;99321.97;5035826;28;20492;-78
2021/12/02 06:55:50;;;;;;;24.52;13.85;;;;;;;4.70;100.00;99320.34;5036158;28;20037;-75
2021/12/02 06:58:18;;;;;;;26.38;15.13;;;;;;;4.69;100.00;99319.53;5053594;28;20044;-76
2021/12/02 07:00:46;;;;;;;25.80;13.77;;;;;;;4.69;100.00;99318.72;5053530;28;20044;-75
2021/12/02 07:03:17;;;;;;;22.73;14.25;;;;;;;4.72;100.00;99312.75;5053784;28;20124;-75
2021/12/02 07:06:01;;;;;;;21.48;13.63;;;;;;;4.67;100.00;99304.63;5052805;28;20373;-76
2021/12/02 07:08:46;;;;;;;18.52;12.68;;;;;;;4.70;100.00;99299.47;5041182;28;20479;-76
2021/12/02 07:11:16;;;;;;;24.58;13.85;;;;;;;4.73;100.00;99303.53;5046533;28;20045;-77
2021/12/02 07:13:47;;;;;;;20.60;12.77;;;;;;;4.75;100.00;99309.50;5044144;28;20051;-77
2021/12/02 07:16:28;;;;;;;22.23;12.95;;;;;;;4.83;100.00;99300.81;5045391;28;20045;-77
2021/12/02 07:19:04;;;;;;;19.70;12.02;;;;;;;4.86;100.00;99302.19;5042485;28;20496;-76
2021/12/02 07:21:36;;;;;;;21.50;13.40;;;;;;;4.78;100.00;99306.25;5042335;28;20045;-77
2021/12/02 07:24:13;;;;;;;27.83;14.45;;;;;;;4.70;100.00;99306.81;5036433;28;20326;-76
2021/12/02 07:27:01;;;;;;;24.15;12.98;;;;;;;4.84;100.00;99310.56;5047658;28;20048;-76
2021/12/02 07:29:39;;;;;;;21.83;12.70;;;;;;;4.90;100.00;99319.53;5046136;28;20519;-75
2021/12/02 07:32:19;;;;;;;23.38;14.73;;;;;;;5.04;100.00;99327.09;5048326;28;20033;-78
2021/12/02 07:35:13;;;;;;;21.65;13.73;;;;;;;5.21;100.00;99333.03;5009973;28;20037;-77
2021/12/02 07:37:45;;;;;;;23.73;14.23;;;;;;;5.35;100.00;99327.84;5047336;28;20503;-76
2021/12/02 07:40:17;;;;;;;23.10;14.00;;;;;;;5.41;100.00;99323.19;5019626;28;20052;-76
2021/12/02 07:42:53;;;;;;;25.42;14.38;;;;;;;5.38;100.00;99319.13;5002716;28;20057;-76
2021/12/02 07:45:24;;;;;;;22.92;14.77;;;;;;;5.51;100.00;99317.75;5042122;28;20049;-76
2021/12/02 07:47:52;;;;;;;26.63;14.80;;;;;;;5.58;100.00;99325.56;5034963;28;20459;-75
2021/12/02 07:50:20;;;;;;;25.35;14.98;;;;;;;5.61;100.00;99316.88;5004063;28;20067;-75
2021/12/02 07:52:54;;;;;;;25.08;14.73;;;;;;;5.56;100.00;99319.63;5014053;28;20727;-76
2021/12/02 07:55:24;;;;;;;24.23;13.68;;;;;;;5.55;100.00;99317.16;5016907;28;20052;-76
2021/12/02 07:57:53;;;;;;;22.17;13.50;;;;;;;5.56;100.00;99325.03;5014377;28;20053;-76
2021/12/02 08:00:25;;;;;;;25.15;14.60;;;;;;;5.63;100.00;99330.97;5023228;28;20052;-76
2021/12/02 08:02:54;;;;;;;29.58;18.05;;;;;;;5.72;100.00;99335.84;4994570;28;20053;-76
2021/12/02 08:05:26;;;;;;;83.20;35.45;;;;;;;5.81;100.00;99327.94;5016075;28;20053;-76
2021/12/02 08:07:55;;;;;;;41.22;21.80;;;;;;;5.85;100.00;99332.53;5017672;28;20041;-75
2021/12/02 08:10:23;;;;;;;42.63;21.60;;;;;;;5.84;100.00;99330.09;5013300;28;20045;-75
2021/12/02 08:12:53;;;;;;;38.58;19.55;;;;;;;5.75;100.00;99321.72;5017839;28;20492;-75
2021/12/02 08:15:23;;;;;;;49.75;25.02;;;;;;;5.81;100.00;99317.88;5017792;28;20049;-76
2021/12/02 08:17:53;;;;;;;31.35;16.35;;;;;;;5.88;100.00;99326.53;5015301;28;20042;-76
2021/12/02 08:20:24;;;;;;;26.73;15.75;;;;;;;5.73;100.00;99321.97;5017831;28;20044;-76
2021/12/02 08:22:53;;;;;;;25.45;15.63;;;;;;;5.95;100.00;99330.88;5031892;28;20037;-76
2021/12/02 08:25:22;;;;;;;25.33;15.20;;;;;;;5.84;100.00;99325.47;5034252;28;20395;-76
2021/12/02 08:27:51;;;;;;;24.38;15.15;;;;;;;5.90;100.00;99312.69;4998304;28;20045;-75
2021/12/02 08:30:23;;;;;;;29.58;18.13;;;;;;;5.88;100.00;99321.09;5008775;28;20045;-76
2021/12/02 08:32:52;;;;;;;30.63;16.60;;;;;;;5.79;100.00;99317.34;5017555;28;20056;-75
2021/12/02 08:35:21;;;;;;;24.80;16.25;;;;;;;5.82;100.00;99316.00;5017456;28;20049;-75
2021/12/02 08:37:52;;;;;;;27.85;16.20;;;;;;;5.88;100.00;99321.09;5001095;28;20056;-76
2021/12/02 08:40:29;;;;;;;25.60;15.50;;;;;;;5.94;100.00;99318.34;5017649;28;20393;-76
2021/12/02 08:43:00;;;;;;;24.98;14.63;;;;;;;5.91;100.00;99320.53;5001148;28;20053;-76
2021/12/02 08:45:33;;;;;;;23.10;14.23;;;;;;;5.92;100.00;99321.38;5017354;28;20060;-76
2021/12/02 08:48:04;;;;;;;22.40;13.15;;;;;;;6.10;100.00;99314.50;5016590;28;20052;-76
2021/12/02 08:50:34;;;;;;;23.92;14.45;;;;;;;6.21;100.00;99319.88;5001485;28;20051;-76
2021/12/02 08:53:03;;;;;;;20.02;12.88;;;;;;;6.13;100.00;99311.22;5016806;28;20507;-76
2021/12/02 08:55:32;;;;;;;20.27;13.02;;;;;;;6.26;100.00;99306.25;5017299;28;20057;-76
2021/12/02 08:58:01;;;;;;;18.92;11.85;;;;;;;6.37;100.00;99321.41;5017077;28;20052;-76
2021/12/02 09:00:34;;;;;;;17.02;12.13;;;;;;;6.38;100.00;99314.03;5016932;28;20072;-76
2021/12/02 09:03:08;;;;;;;19.50;12.18;;;;;;;6.34;100.00;99321.94;5017672;28;20060;-75
2021/12/02 09:05:39;;;;;;;18.98;12.52;;;;;;;6.43;100.00;99320.25;5017044;28;20061;-76
2021/12/02 09:08:07;;;;;;;22.00;12.48;;;;;;;6.44;100.00;99316.44;5017014;28;20575;-75
2021/12/02 09:10:36;;;;;;;21.33;12.15;;;;;;;6.38;100.00;99323.00;5017343;28;20053;-75
2021/12/02 09:13:08;;;;;;;19.05;12.00;;;;;;;6.45;100.00;99323.50;5017057;28;20495;-75
2021/12/02 09:15:38;;;;;;;17.55;12.00;;;;;;;6.51;100.00;99315.31;5015634;28;20427;-75
2021/12/02 09:18:06;;;;;;;20.10;12.32;;;;;;;6.33;100.00;99314.91;5017438;28;20045;-75
2021/12/02 09:20:35;;;;;;;19.52;11.93;;;;;;;6.37;100.00;99315.13;5016909;28;20052;-75
2021/12/02 09:23:03;;;;;;;20.48;11.40;;;;;;;6.75;100.00;99325.44;5000389;28;20045;-76
2021/12/02 09:25:31;;;;;;;15.95;10.90;;;;;;;6.86;100.00;99321.53;5016943;28;20098;-74
2021/12/02 09:28:00;;;;;;;19.10;11.50;;;;;;;6.92;100.00;99323.13;5000880;28;20056;-75
2021/12/02 09:30:28;;;;;;;17.15;11.48;;;;;;;6.87;100.00;99317.72;5031292;28;20049;-75
2021/12/02 09:32:57;;;;;;;19.45;12.20;;;;;;;6.89;100.00;99309.28;5009601;28;20037;-75
2021/12/02 09:35:25;;;;;;;20.95;11.60;;;;;;;6.92;100.00;99320.41;5006205;28;20041;-75
2021/12/02 09:37:53;;;;;;;21.38;11.90;;;;;;;7.05;100.00;99318.91;5009632;28;20049;-75
2021/12/02 09:40:22;;;;;;;17.00;11.38;;;;;;;7.08;100.00;99320.22;5003180;28;20072;-75
2021/12/02 09:42:50;;;;;;;19.95;12.32;;;;;;;7.10;100.00;99323.50;5013707;28;20045;-75
2021/12/02 09:45:18;;;;;;;18.92;12.23;;;;;;;7.06;100.00;99317.81;4989762;28;20049;-75
2021/12/02 09:47:49;;;;;;;21.70;11.13;;;;;;;6.99;100.00;99320.03;5018119;28;20057;-75
2021/12/02 09:50:24;;;;;;;20.73;12.57;;;;;;;7.05;100.00;99312.66;4986490;28;20057;-75
2021/12/02 09:52:53;;;;;;;20.70;11.25;;;;;;;6.96;100.00;99310.56;5002275;28;20484;-75
2021/12/02 09:57:55;;;;;;;15.27;10.77;;;;;;;7.12;100.00;99307.69;5031797;28;20045;-75
2021/12/02 10:00:38;;;;;;;19.58;11.10;;;;;;;7.18;100.00;99301.09;5017006;28;20056;-75
2021/12/02 10:03:19;;;;;;;15.90;10.82;;;;;;;7.21;100.00;99289.63;5018831;28;20053;-74
2021/12/02 10:05:57;;;;;;;17.98;11.13;;;;;;;7.12;100.00;99292.19;5013460;28;20504;-75
2021/12/02 10:08:33;;;;;;;18.17;10.45;;;;;;;7.21;100.00;99284.19;5019988;28;20049;-75
2021/12/02 10:11:05;;;;;;;18.73;11.60;;;;;;;7.18;100.00;99284.75;5017242;28;20487;-75
2021/12/02 10:14:21;;;;;;;15.60;10.82;;;;;;;7.21;100.00;99269.78;4997256;28;20060;-76
2021/12/02 10:16:32;;;;;;;16.67;10.65;;;;;;;7.41;100.00;99266.00;5014573;28;20045;-76
2021/12/02 10:19:08;;;;;;;18.27;11.55;;;;;;;7.42;100.00;99259.44;5019969;28;20048;-76
2021/12/02 10:21:45;;;;;;;21.02;12.85;;;;;;;7.48;100.00;99250.13;5011499;28;20041;-76
2021/12/02 10:24:19;;;;;;;18.63;12.20;;;;;;;7.35;100.00;99248.94;5011773;28;20405;-75
2021/12/02 10:26:51;;;;;;;;;;;;;;;7.45;100.00;99245.28;5009857;28;20053;-75
2021/12/02 10:29:38;;;;;;;21.85;12.52;;;;;;;7.45;100.00;99234.38;5010555;28;19921;-75
2021/12/02 10:32:09;;;;;;;17.77;12.43;;;;;;;7.68;100.00;99231.09;5000222;28;20054;-75
2021/12/02 10:34:54;;;;;;;19.17;12.18;;;;;;;7.72;100.00;99222.03;5018107;28;20037;-75
2021/12/02 10:37:32;;;;;;;17.95;12.13;;;;;;;7.81;100.00;99224.91;5017450;28;20053;-75
2021/12/02 10:40:12;;;;;;;24.73;12.98;;;;;;;7.83;100.00;99224.63;5007748;28;20045;-75
2021/12/02 10:42:43;;;;;;;18.58;12.75;;;;;;;7.84;100.00;99215.34;5030961;28;20046;-75
2021/12/02 10:45:38;;;;;;;21.98;12.98;;;;;;;7.77;100.00;99213.00;5007015;28;20053;-75
2021/12/02 10:48:06;;;;;;;20.50;13.68;;;;;;;7.97;100.00;99200.97;5009773;28;20045;-75
2021/12/02 10:50:39;;;;;;;19.70;12.63;;;;;;;7.63;100.00;99194.66;4997089;28;20515;-75
2021/12/02 10:53:07;;;;;;;21.02;13.10;;;;;;;7.85;100.00;99192.44;5013547;28;20060;-75
2021/12/02 10:55:35;;;;;;;21.88;14.13;;;;;;;7.96;100.00;99183.00;5012050;28;20056;-75
2021/12/02 10:58:03;;;;;;;19.33;12.65;;;;;;;8.14;99.46;99189.53;5018286;28;20041;-75
2021/12/02 11:00:40;;;;;;;20.13;13.07;;;;;;;8.36;97.81;99190.00;5009016;28;20072;-74
2021/12/02 11:03:12;;;;;;;22.30;13.73;;;;;;;8.49;95.48;99188.41;5017804;28;20053;-75
2021/12/02 11:05:47;;;;;;;20.25;11.95;;;;;;;8.58;95.43;99187.44;5011581;28;20053;-75
2021/12/02 11:08:16;;;;;;;17.45;12.30;;;;;;;8.44;95.30;99173.75;5035596;28;20040;-75
2021/12/02 11:10:47;;;;;;;19.75;12.57;;;;;;;8.23;95.19;99173.31;5053375;28;20048;-75
2021/12/02 11:13:22;;;;;;;17.73;12.73;;;;;;;8.44;97.48;99171.03;5040966;28;20053;-75
2021/12/02 11:15:52;;;;;;;20.88;12.65;;;;;;;8.54;94.24;99170.06;5046598;28;20396;-75
2021/12/02 11:18:22;;;;;;;21.85;12.43;;;;;;;8.60;95.57;99165.31;5053045;28;20067;-75
2021/12/02 11:20:57;;;;;;;25.10;13.02;;;;;;;8.73;94.41;99166.44;5034134;28;20046;-75
2021/12/02 11:23:42;;;;;;;20.05;12.57;;;;;;;8.59;91.64;99159.06;5053052;28;20496;-74
2021/12/02 11:26:16;;;;;;;21.02;12.82;;;;;;;8.46;93.84;99162.56;5048728;28;20507;-75
2021/12/02 11:28:45;;;;;;;22.17;13.05;;;;;;;8.40;91.25;99158.31;5034580;28;20052;-74
2021/12/02 11:31:16;;;;;;;22.48;13.27;;;;;;;8.62;91.06;99162.28;5051068;28;20041;-75
2021/12/02 11:33:47;;;;;;;22.35;13.43;;;;;;;8.54;92.74;99153.72;5042136;28;20052;-75
2021/12/02 11:36:24;;;;;;;22.58;13.88;;;;;;;8.63;92.18;99145.63;5051200;28;20049;-75
2021/12/02 11:38:58;;;;;;;19.58;13.10;;;;;;;8.50;92.27;99143.69;5023983;28;20045;-74
2021/12/02 11:41:27;;;;;;;;;;;;;;;8.64;91.65;99146.47;5049571;28;20044;-76
2021/12/02 11:43:55;;;;;;;22.52;12.63;;;;;;;8.80;91.76;99149.69;5030386;28;20398;-76
2021/12/02 11:46:23;;;;;;;22.67;14.25;;;;;;;8.76;89.82;99130.41;5017776;28;20054;-76
2021/12/02 11:48:52;;;;;;;18.30;12.55;;;;;;;8.79;87.51;99127.03;5038575;28;20049;-76
2021/12/02 11:51:22;;;;;;;17.23;11.93;;;;;;;8.83;87.09;99122.59;5041694;28;20049;-74
2021/12/02 11:53:50;;;;;;;18.70;11.88;;;;;;;8.62;88.36;99122.22;5022714;28;20050;-75
2021/12/02 11:56:20;;;;;;;19.35;12.30;;;;;;;8.89;87.80;99112.38;5040714;28;20041;-75
2021/12/02 11:58:50;;;;;;;21.13;12.55;;;;;;;8.90;90.30;99115.94;5031403;28;20045;-75
2021/12/02 12:01:21;;;;;;;16.85;11.43;;;;;;;8.86;88.26;99116.53;5050858;28;20052;-75